Time;durP1;ratioP1;P1;durP2;ratioP2;P2;SDS_P1;SDS_P2;PMS_P1;PMS_P2;Temp;Humidity;BMP_temperature;BMP_pressure;BME280_temperature;BME280_humidity;BME280_pressure;Samples;Min_cycle;Max_cycle;Signal;HPM_P1;HPM_P2
2024/03/23 00:00:32;;;;;;;10.63;7.07;;;11.60;68.80;;;;;;4984980;28;20486;-72
2024/03/23 00:03:00;;;;;;;15.30;7.67;;;11.60;68.80;;;;;;4985199;28;21240;-72
2024/03/23 00:05:26;;;;;;;10.97;7.20;;;11.60;68.80;;;;;;4987054;28;20469;-71
2024/03/23 00:07:53;;;;;;;10.67;6.10;;;11.50;69.10;;;;;;4986587;28;20435;-73
2024/03/23 00:10:23;;;;;;;9.63;5.10;;;11.30;69.20;;;;;;4989313;28;20491;-71
2024/03/23 00:12:49;;;;;;;9.20;5.03;;;11.20;69.70;;;;;;4982734;28;20574;-71
2024/03/23 00:15:16;;;;;;;11.83;7.53;;;11.20;69.90;;;;;;4984329;28;20426;-71
2024/03/23 00:17:42;;;;;;;12.07;6.20;;;11.20;69.90;;;;;;4991083;28;20508;-72
2024/03/23 00:20:09;;;;;;;10.73;6.60;;;11.20;69.90;;;;;;4987474;28;20990;-73
2024/03/23 00:22:35;;;;;;;11.07;6.80;;;11.20;70.10;;;;;;4981713;28;20449;-72
2024/03/23 00:25:02;;;;;;;11.67;5.80;;;11.30;69.90;;;;;;4984782;28;20456;-73
2024/03/23 00:27:28;;;;;;;10.60;5.00;;;11.20;70.10;;;;;;4986929;28;20481;-72
2024/03/23 00:29:55;;;;;;;9.90;5.90;;;11.30;70.10;;;;;;4992054;28;20429;-73
2024/03/23 00:32:21;;;;;;;8.03;5.10;;;11.20;69.70;;;;;;4999553;23;20809;-71
2024/03/23 00:34:48;;;;;;;9.53;5.43;;;11.10;69.70;;;;;;5006364;28;20461;-71
2024/03/23 00:37:14;;;;;;;9.60;5.73;;;11.00;69.90;;;;;;5008804;28;20448;-72
2024/03/23 00:39:41;;;;;;;9.20;4.87;;;10.90;69.90;;;;;;5001526;28;20441;-75
2024/03/23 00:42:07;;;;;;;7.70;4.87;;;10.80;70.20;;;;;;4988372;28;20482;-73
2024/03/23 00:44:34;;;;;;;8.47;5.60;;;10.80;70.10;;;;;;4983807;28;20440;-71
2024/03/23 00:47:00;;;;;;;11.63;5.40;;;10.90;70.10;;;;;;4982571;28;20493;-73
2024/03/23 00:49:27;;;;;;;6.27;4.33;;;10.90;69.90;;;;;;4987607;28;20798;-73
2024/03/23 00:51:53;;;;;;;11.03;5.50;;;11.00;69.80;;;;;;4986830;28;20468;-74
2024/03/23 00:54:19;;;;;;;8.40;5.10;;;11.10;69.70;;;;;;4993070;28;20414;-74
2024/03/23 00:56:45;;;;;;;13.20;4.73;;;11.10;69.50;;;;;;4989505;28;20450;-72
2024/03/23 00:59:11;;;;;;;7.80;4.50;;;11.20;69.40;;;;;;4987563;28;20182;-74
2024/03/23 01:01:37;;;;;;;9.33;5.13;;;11.10;69.40;;;;;;4982775;28;20221;-71
2024/03/23 01:04:03;;;;;;;7.97;4.90;;;11.00;69.70;;;;;;4985141;28;20453;-72
2024/03/23 01:06:28;;;;;;;7.70;4.57;;;11.00;69.80;;;;;;4986194;28;20214;-73
2024/03/23 01:08:54;;;;;;;7.07;5.10;;;11.00;69.80;;;;;;4987346;28;20457;-72
2024/03/23 01:11:19;;;;;;;6.50;4.33;;;11.00;69.70;;;;;;4981889;28;20217;-73
2024/03/23 01:13:45;;;;;;;6.93;4.33;;;11.00;69.70;;;;;;4982433;28;20194;-73
2024/03/23 01:16:11;;;;;;;6.03;4.00;;;11.00;69.80;;;;;;4991579;28;20191;-74
2024/03/23 01:18:36;;;;;;;6.77;3.77;;;11.10;69.70;;;;;;4989115;28;20249;-73
2024/03/23 01:21:02;;;;;;;6.90;4.10;;;11.20;69.40;;;;;;4989462;28;20257;-73
2024/03/23 01:23:28;;;;;;;7.83;4.47;;;11.20;69.40;;;;;;4988720;28;20218;-74
2024/03/23 01:25:54;;;;;;;7.90;3.60;;;11.30;69.10;;;;;;4979370;28;20226;-74
2024/03/23 01:28:21;;;;;;;10.00;4.20;;;11.40;69.20;;;;;;4986259;28;20182;-72
2024/03/23 01:30:46;;;;;;;4.60;3.90;;;11.60;68.90;;;;;;4981798;28;20438;-73
2024/03/23 01:33:12;;;;;;;8.07;4.10;;;11.80;68.60;;;;;;4985224;28;20980;-74
2024/03/23 01:35:38;;;;;;;9.27;4.43;;;11.80;68.30;;;;;;4988075;28;20187;-72
2024/03/23 01:38:04;;;;;;;6.50;3.97;;;11.70;68.60;;;;;;4985834;28;20202;-72
2024/03/23 01:40:32;;;;;;;6.97;3.90;;;11.60;68.90;;;;;;4984113;28;20429;-71
2024/03/23 01:43:07;;;;;;;7.60;4.23;;;11.60;69.10;;;;;;4986730;28;20183;-72
2024/03/23 01:45:33;;;;;;;6.20;4.03;;;11.80;68.80;;;;;;4991870;28;20414;-72
2024/03/23 01:48:00;;;;;;;5.50;3.80;;;11.80;68.80;;;;;;5001928;28;20445;-72
2024/03/23 01:50:26;;;;;;;8.70;3.90;;;11.70;68.90;;;;;;5006837;28;20963;-70
2024/03/23 01:52:53;;;;;;;6.50;4.47;;;11.70;68.90;;;;;;4981856;28;20481;-74
2024/03/23 01:55:19;;;;;;;5.33;3.20;;;11.90;68.90;;;;;;4984579;28;20402;-74
2024/03/23 01:57:44;;;;;;;5.30;3.70;;;12.00;68.80;;;;;;4989852;28;20519;-74
2024/03/23 02:00:12;;;;;;;5.03;3.30;;;12.20;68.30;;;;;;4986761;28;20433;-75
2024/03/23 02:02:44;;;;;;;6.27;3.50;;;12.30;68.30;;;;;;4988991;28;20198;-74
2024/03/23 02:05:11;;;;;;;10.73;4.27;;;12.50;68.20;;;;;;4993009;28;20414;-71
2024/03/23 02:07:38;;;;;;;4.87;3.47;;;12.60;68.00;;;;;;4992818;28;20521;-73
2024/03/23 02:10:05;;;;;;;4.83;3.20;;;12.70;68.00;;;;;;4991439;28;20446;-73
2024/03/23 02:12:31;;;;;;;4.20;3.30;;;12.70;67.90;;;;;;4989176;28;20501;-74
2024/03/23 02:14:56;;;;;;;5.07;3.73;;;12.80;67.90;;;;;;4991569;28;20817;-72
2024/03/23 02:17:22;;;;;;;8.00;4.03;;;12.70;68.00;;;;;;4991624;28;20233;-74
2024/03/23 02:19:47;;;;;;;6.20;3.53;;;12.60;68.20;;;;;;4986024;28;20179;-74
2024/03/23 02:22:15;;;;;;;6.60;4.50;;;12.50;68.30;;;;;;4983147;28;20652;-71
2024/03/23 02:24:40;;;;;;;8.90;4.83;;;12.30;68.50;;;;;;4984401;28;20175;-74
2024/03/23 02:27:06;;;;;;;9.20;4.10;;;12.10;68.80;;;;;;4987214;28;20482;-73
2024/03/23 02:29:32;;;;;;;5.97;3.60;;;12.00;68.90;;;;;;4990139;28;20570;-74
2024/03/23 02:31:58;;;;;;;3.60;3.00;;;11.90;68.90;;;;;;4984238;28;20226;-74
2024/03/23 02:34:25;;;;;;;5.50;3.90;;;12.00;69.10;;;;;;4989229;28;20241;-73
2024/03/23 02:36:50;;;;;;;5.70;3.30;;;11.90;69.10;;;;;;4990164;28;21238;-71
2024/03/23 02:39:16;;;;;;;5.50;3.80;;;12.00;69.10;;;;;;4988573;28;20194;-71
2024/03/23 02:41:41;;;;;;;5.03;3.87;;;12.00;69.20;;;;;;4985300;28;20692;-73
2024/03/23 02:44:07;;;;;;;7.53;3.53;;;12.10;69.20;;;;;;4989616;28;20186;-72
2024/03/23 02:46:33;;;;;;;6.67;4.00;;;12.10;69.20;;;;;;4989113;28;20241;-73
2024/03/23 02:48:59;;;;;;;6.70;3.43;;;12.10;69.10;;;;;;4982978;28;20496;-73
2024/03/23 02:51:24;;;;;;;6.20;3.63;;;12.20;69.10;;;;;;4977305;28;20218;-72
2024/03/23 02:53:50;;;;;;;7.00;3.60;;;12.30;68.90;;;;;;4985709;28;20179;-73
2024/03/23 02:56:16;;;;;;;9.73;4.00;;;12.40;68.80;;;;;;4984272;28;20183;-72
2024/03/23 02:58:45;;;;;;;5.67;3.37;;;12.50;68.80;;;;;;4984283;28;20186;-73
2024/03/23 03:01:10;;;;;;;5.00;3.53;;;12.60;68.60;;;;;;4980425;28;20500;-74
2024/03/23 03:03:36;;;;;;;6.67;4.20;;;12.70;68.60;;;;;;4989426;28;20454;-73
2024/03/23 03:06:01;;;;;;;11.53;4.00;;;12.70;68.60;;;;;;4989645;28;20222;-73
2024/03/23 03:08:27;;;;;;;6.60;3.90;;;12.70;68.60;;;;;;4982900;28;20564;-73
2024/03/23 03:10:53;;;;;;;5.10;3.63;;;12.70;68.60;;;;;;4985190;28;20206;-73
2024/03/23 03:13:18;;;;;;;5.53;3.63;;;12.70;68.80;;;;;;4983624;28;20182;-74
2024/03/23 03:15:44;;;;;;;8.33;3.97;;;12.60;68.80;;;;;;4990466;28;20190;-73
2024/03/23 03:18:10;;;;;;;4.60;2.83;;;12.60;68.80;;;;;;4992122;28;20191;-74
2024/03/23 03:20:39;;;;;;;6.37;3.60;;;12.60;68.80;;;;;;4993050;28;20225;-70
2024/03/23 03:23:05;;;;;;;6.50;3.67;;;12.70;68.80;;;;;;4994531;28;20329;-74
2024/03/23 03:25:31;;;;;;;5.37;3.70;;;12.60;68.80;;;;;;4981536;28;20520;-73
2024/03/23 03:27:56;;;;;;;7.00;3.40;;;12.70;68.80;;;;;;5004523;28;20453;-72
2024/03/23 03:30:22;;;;;;;8.57;3.77;;;12.70;68.90;;;;;;5007784;28;20249;-73
2024/03/23 03:32:47;;;;;;;9.93;3.77;;;12.60;68.90;;;;;;5001456;28;20667;-73
2024/03/23 03:35:13;;;;;;;6.33;3.70;;;12.60;68.90;;;;;;4988773;28;20838;-73
2024/03/23 03:37:39;;;;;;;5.90;3.70;;;12.60;68.90;;;;;;4988394;28;20190;-74
2024/03/23 03:40:08;;;;;;;7.67;4.27;;;12.60;69.10;;;;;;4990177;28;20735;-72
2024/03/23 03:42:34;;;;;;;7.77;3.73;;;12.50;69.10;;;;;;4987524;28;20235;-74
2024/03/23 03:45:00;;;;;;;7.17;3.47;;;12.50;69.10;;;;;;4990003;28;20417;-73
2024/03/23 03:47:26;;;;;;;5.10;3.60;;;12.50;69.20;;;;;;4989829;28;20656;-74
2024/03/23 03:49:51;;;;;;;6.10;3.60;;;12.40;69.20;;;;;;4991861;28;20517;-73
2024/03/23 03:52:17;;;;;;;6.50;3.40;;;12.40;69.40;;;;;;4989825;28;20279;-74
2024/03/23 03:54:43;;;;;;;7.10;4.00;;;12.30;69.50;;;;;;4992116;28;20199;-72
2024/03/23 03:57:08;;;;;;;10.10;4.40;;;12.30;69.70;;;;;;4992992;28;20195;-72
2024/03/23 03:59:34;;;;;;;5.10;3.83;;;12.30;69.90;;;;;;4987741;28;20544;-73
2024/03/23 04:02:00;;;;;;;5.93;3.97;;;12.40;70.10;;;;;;4987312;28;20559;-72
2024/03/23 04:04:25;;;;;;;5.00;3.33;;;12.60;69.50;;;;;;4988065;28;20600;-75
2024/03/23 04:07:01;;;;;;;5.97;3.20;;;12.70;69.20;;;;;;4988393;28;20253;-74
2024/03/23 04:09:27;;;;;;;4.70;3.40;;;12.70;69.20;;;;;;4986105;28;20240;-71
2024/03/23 04:11:53;;;;;;;4.67;3.40;;;12.70;69.20;;;;;;4986127;28;20524;-71
2024/03/23 04:14:18;;;;;;;5.73;3.77;;;12.70;69.10;;;;;;4981888;28;20186;-74
2024/03/23 04:16:44;;;;;;;5.23;3.50;;;12.60;69.40;;;;;;4989816;28;20297;-74
2024/03/23 04:19:10;;;;;;;5.40;4.00;;;12.60;69.40;;;;;;4987682;28;20742;-74
2024/03/23 04:21:37;;;;;;;5.93;3.87;;;12.50;69.50;;;;;;4990953;28;20203;-71
2024/03/23 04:24:03;;;;;;;6.73;3.90;;;12.50;69.70;;;;;;4989304;28;20195;-74
2024/03/23 04:26:28;;;;;;;7.80;3.70;;;12.50;69.50;;;;;;4988005;28;20461;-73
2024/03/23 04:28:54;;;;;;;5.97;3.90;;;12.40;69.50;;;;;;4990869;28;20179;-74
2024/03/23 04:31:19;;;;;;;6.73;3.50;;;12.40;69.70;;;;;;4989791;28;20229;-71
2024/03/23 04:33:45;;;;;;;4.67;3.90;;;12.40;69.90;;;;;;4992886;28;20210;-72
2024/03/23 04:36:10;;;;;;;6.20;4.30;;;12.30;69.90;;;;;;4997875;28;20206;-75
2024/03/23 04:38:36;;;;;;;7.37;4.67;;;12.30;70.10;;;;;;4997690;28;20183;-75
2024/03/23 04:41:02;;;;;;;7.03;4.37;;;12.20;70.40;;;;;;4991246;28;20274;-74
2024/03/23 04:43:28;;;;;;;6.30;4.10;;;12.10;70.80;;;;;;4993782;28;20186;-74
2024/03/23 04:45:54;;;;;;;4.80;3.50;;;12.20;71.00;;;;;;4994443;28;20218;-74
2024/03/23 04:48:22;;;;;;;10.07;4.37;;;12.30;71.60;;;;;;4990674;28;20430;-72
2024/03/23 04:50:48;;;;;;;12.13;4.47;;;12.30;72.40;;;;;;4990438;28;20210;-74
2024/03/23 04:53:14;;;;;;;8.53;5.50;;;12.20;74.90;;;;;;4991217;28;20458;-73
2024/03/23 04:55:41;;;;;;;7.63;5.20;;;12.10;76.10;;;;;;4994201;28;20446;-74
2024/03/23 04:58:07;;;;;;;11.53;6.80;;;12.00;77.30;;;;;;4993396;28;20426;-74
2024/03/23 05:00:32;;;;;;;9.57;6.07;;;12.00;78.10;;;;;;4990879;28;20186;-71
2024/03/23 05:02:58;;;;;;;13.17;7.57;;;11.90;79.00;;;;;;4991351;28;20191;-72
2024/03/23 05:05:23;;;;;;;12.00;7.60;;;11.80;79.90;;;;;;4992147;28;20318;-74
2024/03/23 05:07:49;;;;;;;14.40;8.40;;;11.70;80.90;;;;;;4988306;28;20712;-74
2024/03/23 05:10:14;;;;;;;13.63;9.37;;;11.60;81.80;;;;;;4994750;28;20193;-74
2024/03/23 05:12:40;;;;;;;14.40;7.83;;;11.50;82.40;;;;;;4990751;28;20274;-71
2024/03/23 05:15:07;;;;;;;14.53;8.87;;;11.50;82.70;;;;;;4996897;28;20190;-73
2024/03/23 05:17:33;;;;;;;18.60;9.43;;;11.40;82.80;;;;;;4992759;28;20178;-73
2024/03/23 05:19:59;;;;;;;15.40;10.00;;;11.40;83.30;;;;;;4996000;28;20433;-74
2024/03/23 05:22:27;;;;;;;19.80;11.07;;;11.40;83.10;;;;;;4991492;28;20468;-73
2024/03/23 05:24:53;;;;;;;21.10;11.80;;;11.40;83.30;;;;;;4992328;28;20466;-73
2024/03/23 05:27:18;;;;;;;22.07;12.13;;;11.40;83.70;;;;;;4994675;28;20485;-72
2024/03/23 05:29:44;;;;;;;24.00;12.63;;;11.20;83.70;;;;;;4996574;28;20222;-72
2024/03/23 05:32:09;;;;;;;18.33;12.00;;;11.10;83.70;;;;;;4993823;28;20207;-73
2024/03/23 05:34:35;;;;;;;26.47;13.63;;;11.10;83.70;;;;;;4995883;28;20179;-74
2024/03/23 05:37:01;;;;;;;27.07;13.33;;;11.10;83.70;;;;;;4993183;28;20262;-74
2024/03/23 05:39:26;;;;;;;23.13;13.13;;;11.00;83.80;;;;;;4997185;28;20190;-69
2024/03/23 05:41:52;;;;;;;22.63;12.90;;;10.80;83.70;;;;;;4992890;28;20576;-70
2024/03/23 05:44:18;;;;;;;29.50;13.50;;;10.80;83.80;;;;;;4993653;28;20218;-72
2024/03/23 05:46:48;;;;;;;24.20;12.70;;;10.70;84.10;;;;;;4991361;28;20221;-72
2024/03/23 05:49:14;;;;;;;22.70;12.30;;;10.70;83.80;;;;;;4990716;28;20592;-74
2024/03/23 05:51:39;;;;;;;20.73;12.00;;;10.60;83.80;;;;;;4985809;28;20879;-73
2024/03/23 05:54:05;;;;;;;22.27;13.10;;;10.70;84.30;;;;;;4990899;28;20441;-72
2024/03/23 05:56:31;;;;;;;22.07;13.10;;;10.70;84.60;;;;;;4989822;28;20186;-73
2024/03/23 05:58:57;;;;;;;23.77;11.47;;;10.60;84.40;;;;;;4990615;28;20438;-72
2024/03/23 06:01:22;;;;;;;15.27;9.20;;;10.50;84.00;;;;;;4987385;28;20584;-72
2024/03/23 06:03:48;;;;;;;17.83;8.70;;;10.40;83.60;;;;;;4987395;28;20567;-70
2024/03/23 06:06:14;;;;;;;16.17;7.23;;;10.40;83.60;;;;;;4989959;28;20210;-73
2024/03/23 06:08:39;;;;;;;16.20;7.30;;;10.20;82.10;;;;;;4988640;28;20189;-73
2024/03/23 06:11:08;;;;;;;12.63;6.60;;;10.10;81.70;;;;;;4988433;28;20222;-71
2024/03/23 06:13:34;;;;;;;13.07;6.13;;;10.10;81.90;;;;;;4991842;28;20187;-72
2024/03/23 06:16:01;;;;;;;9.40;5.40;;;10.10;82.10;;;;;;4996316;28;20515;-72
2024/03/23 06:18:27;;;;;;;9.20;4.77;;;10.10;80.00;;;;;;4988470;28;20418;-72
2024/03/23 06:20:53;;;;;;;12.23;5.30;;;10.10;80.50;;;;;;4988077;28;20442;-72
2024/03/23 06:23:20;;;;;;;9.00;4.23;;;10.20;80.60;;;;;;4986590;28;20433;-73
2024/03/23 06:25:46;;;;;;;8.70;4.43;;;10.10;79.60;;;;;;4989650;28;20190;-73
2024/03/23 06:28:11;;;;;;;8.17;3.37;;;10.10;79.90;;;;;;4992002;28;20499;-71
2024/03/23 06:30:37;;;;;;;7.00;2.60;;;10.10;79.90;;;;;;4990892;28;20432;-73
2024/03/23 06:33:03;;;;;;;5.93;3.10;;;10.00;79.60;;;;;;4988136;28;20741;-72
2024/03/23 06:35:28;;;;;;;4.30;2.37;;;9.90;79.60;;;;;;4992300;28;20701;-72
2024/03/23 06:37:54;;;;;;;4.10;2.40;;;9.90;79.20;;;;;;4989689;28;20197;-71
2024/03/23 06:40:19;;;;;;;4.53;2.10;;;9.90;78.00;;;;;;4992460;28;20200;-72
2024/03/23 06:42:45;;;;;;;3.27;2.07;;;9.90;78.60;;;;;;4989327;28;20206;-73
2024/03/23 06:45:11;;;;;;;2.57;1.53;;;9.90;79.20;;;;;;4994096;28;20197;-73
2024/03/23 06:47:36;;;;;;;3.67;1.80;;;9.90;78.70;;;;;;4995879;28;20297;-73
2024/03/23 06:50:03;;;;;;;2.33;1.30;;;9.80;77.40;;;;;;4986411;28;20198;-74
2024/03/23 06:52:29;;;;;;;1.23;1.10;;;9.70;77.30;;;;;;4993750;28;20206;-71
2024/03/23 06:54:55;;;;;;;2.90;1.03;;;9.70;77.80;;;;;;4990117;28;20462;-73
2024/03/23 06:57:21;;;;;;;2.30;1.07;;;9.70;77.70;;;;;;5005859;28;20792;-72
2024/03/23 06:59:47;;;;;;;1.47;1.10;;;9.70;77.80;;;;;;5009974;28;20853;-71
2024/03/23 07:02:12;;;;;;;2.63;0.93;;;9.60;76.70;;;;;;4999737;28;20202;-70
2024/03/23 07:04:39;;;;;;;1.63;0.97;;;9.60;77.10;;;;;;4993568;28;20195;-73
2024/03/23 07:07:05;;;;;;;1.63;1.10;;;9.50;77.40;;;;;;4995367;28;20281;-74
2024/03/23 07:09:31;;;;;;;3.03;1.10;;;9.60;77.30;;;;;;4990462;28;20505;-73
2024/03/23 07:11:57;;;;;;;1.73;0.83;;;9.60;77.60;;;;;;4993830;28;20544;-74
2024/03/23 07:14:23;;;;;;;1.13;0.70;;;9.60;77.40;;;;;;5000020;28;20186;-75
2024/03/23 07:16:49;;;;;;;2.40;0.83;;;9.70;77.10;;;;;;4997598;28;20410;-75
2024/03/23 07:19:18;;;;;;;0.90;0.70;;;9.70;77.00;;;;;;4997220;28;20795;-75
2024/03/23 07:21:44;;;;;;;4.53;0.90;;;9.60;76.50;;;;;;4995360;28;20469;-73
2024/03/23 07:24:10;;;;;;;2.50;0.80;;;9.60;76.50;;;;;;4997957;28;20837;-74
2024/03/23 07:26:36;;;;;;;0.90;0.70;;;9.60;76.50;;;;;;4998998;28;20457;-74
2024/03/23 07:29:01;;;;;;;1.20;0.80;;;9.60;76.50;;;;;;4992347;28;20179;-74
2024/03/23 07:31:27;;;;;;;1.77;1.13;;;9.60;76.10;;;;;;4988951;28;20284;-72
2024/03/23 07:33:53;;;;;;;1.50;0.73;;;9.70;76.40;;;;;;4990417;28;20206;-72
2024/03/23 07:36:18;;;;;;;1.10;0.80;;;9.80;75.70;;;;;;4994204;28;20525;-74
2024/03/23 07:38:47;;;;;;;1.77;0.80;;;9.70;76.20;;;;;;4988749;28;20183;-73
2024/03/23 07:41:17;;;;;;;1.00;0.77;;;9.70;76.70;;;;;;4991958;28;20206;-75
2024/03/23 07:43:43;;;;;;;1.20;0.77;;;9.70;76.20;;;;;;4992255;28;20474;-71
2024/03/23 07:46:09;;;;;;;1.00;0.60;;;9.90;76.50;;;;;;4997551;28;20484;-70
2024/03/23 07:48:35;;;;;;;1.07;0.70;;;9.80;76.10;;;;;;4994028;28;20491;-74
2024/03/23 07:51:07;;;;;;;1.27;0.80;;;9.70;76.70;;;;;;4991266;28;20218;-73
2024/03/23 07:53:34;;;;;;;1.57;0.80;;;9.60;77.00;;;;;;4991471;28;20516;-74
2024/03/23 07:56:01;;;;;;;1.70;0.83;;;9.50;77.70;;;;;;4986306;28;20450;-72
2024/03/23 07:58:27;;;;;;;1.83;1.00;;;9.20;80.50;;;;;;4988265;28;20511;-75
2024/03/23 08:00:56;;;;;;;1.20;0.80;;;9.00;81.70;;;;;;4985375;28;20537;-74
2024/03/23 08:03:22;;;;;;;1.90;0.90;;;8.90;81.80;;;;;;4994343;28;20418;-73
2024/03/23 08:05:48;;;;;;;1.70;1.10;;;8.70;81.70;;;;;;4991098;28;20424;-71
2024/03/23 08:08:14;;;;;;;1.47;1.17;;;8.80;82.50;;;;;;4990403;28;20504;-73
2024/03/23 08:10:53;;;;;;;4.23;1.53;;;8.70;82.80;;;;;;4990452;28;20246;-72
2024/03/23 08:13:19;;;;;;;1.30;1.00;;;8.60;82.20;;;;;;4989418;28;20449;-74
2024/03/23 08:15:46;;;;;;;2.10;1.03;;;8.50;81.80;;;;;;4997067;28;20406;-74
2024/03/23 08:18:13;;;;;;;1.30;0.90;;;8.50;81.80;;;;;;5001488;28;20953;-73
2024/03/23 08:20:38;;;;;;;1.40;0.90;;;8.60;81.90;;;;;;4985723;28;20442;-70
2024/03/23 08:23:06;;;;;;;2.50;1.50;;;8.60;81.80;;;;;;4987280;28;20430;-74
2024/03/23 08:25:31;;;;;;;2.70;1.20;;;8.60;81.70;;;;;;4988735;28;20189;-74
2024/03/23 08:27:57;;;;;;;2.93;1.47;;;8.70;81.40;;;;;;4983130;28;20474;-73
2024/03/23 08:30:23;;;;;;;3.47;1.33;;;8.70;81.20;;;;;;4992501;28;20202;-71
2024/03/23 08:32:49;;;;;;;2.90;2.00;;;8.80;81.40;;;;;;4986044;28;21021;-73
2024/03/23 08:35:14;;;;;;;2.00;1.40;;;8.90;81.10;;;;;;4987888;28;20193;-72
2024/03/23 08:37:40;;;;;;;1.73;1.40;;;8.90;80.80;;;;;;4991983;28;20321;-73
2024/03/23 08:40:08;;;;;;;2.17;1.20;;;8.90;80.60;;;;;;4993219;28;20203;-74
2024/03/23 08:42:34;;;;;;;2.13;1.53;;;8.90;80.50;;;;;;4989834;28;20532;-75
2024/03/23 08:44:59;;;;;;;2.07;1.50;;;9.00;80.50;;;;;;4993623;28;20438;-74
2024/03/23 08:47:25;;;;;;;2.53;1.60;;;8.90;80.60;;;;;;4992277;28;21005;-74
2024/03/23 08:49:51;;;;;;;2.87;1.60;;;8.90;81.10;;;;;;4987818;28;20183;-75
2024/03/23 08:52:16;;;;;;;3.73;1.80;;;9.00;80.50;;;;;;4986068;28;20213;-76
2024/03/23 08:54:42;;;;;;;2.80;1.73;;;9.10;80.00;;;;;;4992673;28;20190;-76
2024/03/23 08:57:08;;;;;;;3.20;1.80;;;9.10;79.20;;;;;;4987513;28;20191;-72
2024/03/23 08:59:34;;;;;;;1.50;1.33;;;9.00;77.60;;;;;;4994539;28;20559;-74
2024/03/23 09:02:00;;;;;;;3.10;1.70;;;9.20;78.90;;;;;;4982392;28;20459;-74
2024/03/23 09:04:25;;;;;;;2.80;1.80;;;9.30;76.80;;;;;;4988415;28;20422;-73
2024/03/23 09:06:51;;;;;;;3.00;1.60;;;9.40;76.20;;;;;;4985621;28;20242;-74
2024/03/23 09:09:17;;;;;;;3.47;1.53;;;9.40;74.50;;;;;;4987509;28;20233;-74
2024/03/23 09:11:43;;;;;;;2.40;1.70;;;9.40;74.50;;;;;;4984490;28;20238;-73
2024/03/23 09:14:08;;;;;;;3.73;1.80;;;9.40;73.90;;;;;;4987697;28;20194;-74
2024/03/23 09:16:35;;;;;;;2.00;1.60;;;9.30;73.90;;;;;;4993455;28;20558;-71
2024/03/23 09:19:00;;;;;;;5.80;2.17;;;9.30;74.80;;;;;;4992861;28;20638;-73
2024/03/23 09:21:26;;;;;;;6.80;2.10;;;9.40;73.20;;;;;;4991402;28;20967;-72
2024/03/23 09:23:51;;;;;;;6.97;2.47;;;9.50;72.30;;;;;;4989122;28;20202;-73
2024/03/23 09:26:17;;;;;;;5.43;2.20;;;9.40;69.80;;;;;;4990609;28;20241;-73
2024/03/23 09:28:43;;;;;;;5.33;2.57;;;9.40;67.50;;;;;;4997520;28;20261;-72
2024/03/23 09:31:09;;;;;;;5.37;3.00;;;9.40;68.20;;;;;;4983653;28;20241;-73
2024/03/23 09:33:35;;;;;;;6.80;3.20;;;9.40;68.80;;;;;;4992407;28;20274;-73
2024/03/23 09:36:05;;;;;;;7.13;2.73;;;9.30;67.50;;;;;;4994502;28;20426;-73
2024/03/23 09:38:31;;;;;;;4.47;2.40;;;9.40;68.20;;;;;;4990353;28;21172;-74
2024/03/23 09:40:57;;;;;;;7.80;3.47;;;9.40;67.60;;;;;;4988580;28;20457;-73
2024/03/23 09:43:26;;;;;;;8.37;3.20;;;9.40;66.90;;;;;;4986698;28;20190;-72
2024/03/23 09:45:52;;;;;;;10.53;4.80;;;9.50;66.30;;;;;;4983569;28;20956;-73
2024/03/23 09:48:18;;;;;;;5.83;3.20;;;9.70;64.70;;;;;;4986750;28;20561;-73
2024/03/23 09:50:45;;;;;;;9.47;3.00;;;9.80;64.50;;;;;;4985371;28;21200;-73
2024/03/23 09:53:12;;;;;;;8.63;3.00;;;9.70;64.50;;;;;;4981860;28;20442;-72
2024/03/23 09:55:40;;;;;;;8.63;3.03;;;9.70;64.40;;;;;;4988245;28;20974;-73
2024/03/23 09:58:06;;;;;;;6.50;3.10;;;9.60;64.50;;;;;;4981867;28;20433;-73
2024/03/23 10:00:32;;;;;;;7.10;2.90;;;9.80;64.70;;;;;;4989860;28;20443;-73
2024/03/23 10:03:01;;;;;;;4.97;2.63;;;9.80;63.80;;;;;;4980448;28;20278;-74
2024/03/23 10:05:36;;;;;;;8.93;3.50;;;9.70;63.50;;;;;;4988016;28;20474;-71
2024/03/23 10:08:14;;;;;;;14.67;3.83;;;9.60;64.10;;;;;;4987111;28;20512;-73
2024/03/23 10:10:40;;;;;;;9.30;4.80;;;9.70;63.40;;;;;;4986899;28;20437;-74
2024/03/23 10:13:06;;;;;;;7.00;4.27;;;9.60;63.90;;;;;;4986881;28;20426;-73
2024/03/23 10:15:34;;;;;;;5.87;3.30;;;9.70;64.40;;;;;;4990316;28;20428;-73
2024/03/23 10:18:18;;;;;;;11.93;3.73;;;9.80;63.70;;;;;;4985436;28;20198;-74
2024/03/23 10:20:47;;;;;;;7.87;4.03;;;9.70;64.10;;;;;;4984685;28;20552;-74
2024/03/23 10:23:16;;;;;;;9.93;3.53;;;9.80;64.80;;;;;;4989761;28;20793;-72
2024/03/23 10:25:42;;;;;;;10.20;4.20;;;9.80;64.80;;;;;;4987643;28;20442;-74
2024/03/23 10:28:09;;;;;;;11.97;3.77;;;9.90;65.30;;;;;;4990873;28;20816;-74
2024/03/23 10:30:35;;;;;;;9.40;4.73;;;9.90;64.50;;;;;;4985490;28;20262;-70
2024/03/23 10:33:08;;;;;;;9.60;3.90;;;9.80;65.40;;;;;;4986311;28;20883;-74
2024/03/23 10:35:34;;;;;;;8.03;3.40;;;9.90;65.70;;;;;;4985955;28;20454;-72
2024/03/23 10:38:00;;;;;;;7.93;3.50;;;9.90;65.40;;;;;;4989683;28;20464;-74
2024/03/23 10:40:27;;;;;;;8.13;3.30;;;9.90;64.80;;;;;;4985862;28;20860;-70
2024/03/23 10:42:57;;;;;;;9.43;4.17;;;9.80;64.40;;;;;;4987042;28;20202;-72
2024/03/23 10:45:23;;;;;;;9.63;3.20;;;9.80;64.20;;;;;;4988593;28;20421;-74
2024/03/23 10:47:48;;;;;;;7.70;4.07;;;9.90;64.40;;;;;;4993952;28;20494;-73
2024/03/23 10:50:14;;;;;;;8.27;4.30;;;9.80;64.40;;;;;;4994850;28;21073;-74
2024/03/23 10:52:44;;;;;;;7.80;3.43;;;9.70;65.60;;;;;;4988111;28;20210;-73
2024/03/23 10:55:10;;;;;;;7.70;4.30;;;9.50;66.40;;;;;;4988691;28;20723;-72
2024/03/23 10:57:44;;;;;;;7.20;4.13;;;9.10;67.60;;;;;;4991318;28;20443;-73
2024/03/23 11:00:10;;;;;;;9.70;3.73;;;8.60;69.90;;;;;;4990154;28;20520;-72
2024/03/23 11:02:36;;;;;;;12.57;3.90;;;8.00;72.40;;;;;;4990885;28;20462;-74
2024/03/23 11:05:02;;;;;;;13.00;4.07;;;7.70;75.40;;;;;;4991936;28;20422;-72
2024/03/23 11:07:31;;;;;;;4.00;2.60;;;7.30;78.30;;;;;;4993229;28;20564;-71
2024/03/23 11:09:58;;;;;;;6.30;3.10;;;6.70;80.20;;;;;;4988369;28;20430;-74
2024/03/23 11:12:23;;;;;;;8.23;2.17;;;6.20;81.70;;;;;;4985912;28;20488;-73
2024/03/23 11:14:53;;;;;;;5.77;2.90;;;6.00;83.00;;;;;;4988701;28;20425;-72
2024/03/23 11:17:22;;;;;;;8.77;3.13;;;5.90;84.10;;;;;;4985043;28;20201;-72
2024/03/23 11:19:58;;;;;;;10.90;3.50;;;6.20;85.00;;;;;;4988202;28;20443;-72
2024/03/23 11:25:22;;;;;;;6.70;3.13;;;6.70;84.10;;;;;;4991268;28;20559;-72
2024/03/23 11:27:53;;;;;;;6.00;3.17;;;6.60;83.40;;;;;;5008787;28;20576;-73
2024/03/23 11:30:24;;;;;;;5.20;2.83;;;6.60;83.30;;;;;;4990803;28;20508;-73
2024/03/23 11:32:53;;;;;;;7.10;3.20;;;6.70;83.30;;;;;;4987236;28;21057;-70
2024/03/23 11:35:45;;;;;;;5.80;2.47;;;6.90;82.20;;;;;;4984667;28;20437;-73
2024/03/23 11:38:15;;;;;;;10.80;3.10;;;7.20;83.10;;;;;;4989503;28;20460;-73
2024/03/23 11:40:46;;;;;;;6.67;2.70;;;7.50;82.20;;;;;;4990800;28;20425;-74
2024/03/23 11:43:19;;;;;;;3.90;2.40;;;7.70;79.90;;;;;;4986043;28;20528;-75
2024/03/23 11:45:47;;;;;;;4.47;2.20;;;8.00;78.40;;;;;;4998263;28;20506;-71
2024/03/23 11:48:14;;;;;;;6.37;2.80;;;8.50;78.00;;;;;;4995671;28;20433;-78
2024/03/23 11:50:41;;;;;;;4.80;2.20;;;8.90;74.60;;;;;;4986321;28;20452;-74
2024/03/23 11:53:14;;;;;;;7.07;2.67;;;9.10;72.70;;;;;;4988944;28;20433;-76
2024/03/23 11:55:50;;;;;;;4.00;1.93;;;9.40;72.00;;;;;;4989919;28;20441;-73
2024/03/23 11:58:17;;;;;;;5.17;2.37;;;9.30;68.00;;;;;;4992506;28;20449;-74
2024/03/23 12:01:09;;;;;;;5.17;1.83;;;9.40;69.70;;;;;;4996189;28;20434;-74
2024/03/23 12:03:35;;;;;;;6.10;2.07;;;9.30;67.90;;;;;;4991308;28;20439;-74
2024/03/23 12:06:02;;;;;;;2.90;1.60;;;9.20;66.70;;;;;;4992189;28;20588;-75
2024/03/23 12:08:28;;;;;;;6.77;2.13;;;9.30;67.00;;;;;;4994518;28;20422;-76
2024/03/23 12:11:04;;;;;;;8.43;2.60;;;9.30;66.70;;;;;;4997882;28;21162;-76
2024/03/23 12:13:30;;;;;;;3.17;1.23;;;9.20;67.30;;;;;;5002588;28;20671;-76
2024/03/23 12:16:14;;;;;;;7.77;2.70;;;9.30;66.40;;;;;;4988526;28;20430;-76
2024/03/23 12:18:42;;;;;;;2.73;1.67;;;9.20;64.20;;;;;;4986507;28;20302;-76
2024/03/23 12:21:08;;;;;;;9.20;1.90;;;9.30;64.40;;;;;;4985790;28;20994;-74
2024/03/23 12:23:35;;;;;;;4.80;2.40;;;9.10;65.40;;;;;;4989439;28;20459;-75
2024/03/23 12:26:02;;;;;;;12.30;2.07;;;9.00;65.60;;;;;;4992016;28;20425;-76
2024/03/23 12:28:28;;;;;;;8.20;2.33;;;9.20;66.70;;;;;;4997043;28;20410;-76
2024/03/23 12:30:54;;;;;;;5.40;2.77;;;9.40;65.70;;;;;;4982981;28;20516;-76
2024/03/23 12:33:20;;;;;;;5.40;2.53;;;9.50;65.70;;;;;;4991456;28;20449;-74
2024/03/23 12:35:45;;;;;;;5.40;1.90;;;9.60;65.70;;;;;;4988332;28;20438;-76
2024/03/23 12:38:11;;;;;;;10.37;2.40;;;9.80;63.50;;;;;;4995171;28;20429;-75
2024/03/23 12:43:07;;;;;;;4.87;2.67;;;10.40;64.70;;;;;;4981312;28;20230;-71
2024/03/23 12:45:33;;;;;;;5.17;2.23;;;10.70;62.00;;;;;;4995144;28;20472;-72
2024/03/23 12:47:58;;;;;;;6.40;2.90;;;10.70;62.90;;;;;;4995375;28;20975;-72
2024/03/23 12:50:24;;;;;;;9.47;2.60;;;10.40;62.50;;;;;;4997133;28;20260;-72